South Sandisfield, Massachusetts
Current Conditions -  °F | °C
As of 11:53 AM on Sunday 23 Nov 2014 (Local Time) from KBAF Reporting Station
Few Clouds Few Clouds  
Wind Chill: 54°   Ceiling: Unl
Heat Index: 54°   Visibility: 10mi
Dew Point: 28°   Wind: 5mph
Humidity: 37%   Direction: 170°S
Pressure: 30.12"   Gusts: NA
Location:  42.1051°N, 73.1239°W
Report Text: KBAF 231653Z 17004KT 10SM FEW080 12/M02 A3012 RMK AO2 SLP202 T01221022
Loading
Personal Weather Stations






























Interactive Weather Map New forecast layout! Learn more

10-Day Weather Forecast

Advertisements
Track Severe Weather on mobile